AirNav   Pilot Hours Calculator
 
 683 users online  

C08 Silver West Airport
Westcliffe, Colorado, USA

GOING TO WESTCLIFFE?


FAA INFORMATION EFFECTIVE 22 APRIL 2021

Location

FAA Identifier: C08
Lat/Long: 38-00-47.8000N 105-22-27.3800W
38-00.796667N 105-22.456333W
38.0132778,-105.3742722
(estimated)
Elevation: 8290 ft. / 2527 m (estimated)
Variation: 11E (1985)
From city: 9 miles SE of WESTCLIFFE, CO
Time zone: UTC -6 (UTC -7 during Standard Time)
Zip code: 81252

Airport Operations

Airport use: Open to the public
Activation date: 04/1973
Control tower: no
ARTCC: DENVER CENTER
FSS: DENVER FLIGHT SERVICE STATION
NOTAMs facility: DEN (NOTAM-D service available)
Attendance: UNATNDD
Wind indicator: yes
Segmented circle: yes

Airport Communications

CTAF: 122.9

Airport Services

Fuel available: 100LL
24 HR SELF SERVE FUEL.
Parking: tiedowns
Airframe service: NONE
Powerplant service: NONE
Bottled oxygen: NONE
Bulk oxygen: NONE

Runway Information

Runway 13/31

Dimensions: 6954 x 55 ft. / 2120 x 17 m
Surface: asphalt, in good condition
HAS VARYING TERRAIN HEIGHTS FROM -5 TO +12 FT ALONG FULL LENGTH OF RY INSIDE OF PRIMARY SURFACE.
RUNWAY 13  RUNWAY 31
Latitude: 38-01.282500N38-00.310833N
Longitude: 105-22.840000W105-22.072667W
Elevation: 8238.0 ft.8274.0 ft.
Traffic pattern: rightleft
Markings: basic, in good conditionbasic, in good condition
Touchdown point: yes, no lightsyes, no lights
Obstructions: none10 ft. gnd, 201 ft. from runway
HAS +12 FT TERRAIN 120 FT FM THLD 0B.

Airport Ownership and Management from official FAA records

Ownership: Publicly-owned
Owner: CUSTER COUNTY, COLORADO
360 CR 310, P.O. BOX 150
WESTCLIFFE, CO 81252
Phone 719-783-2695
Manager: ROBERT JOLEY
P.O. BOX 150
WESTCLIFFE, CO 81252
Phone 719-783-2286

Airport Operational Statistics

Aircraft based on the field: 25
Single engine airplanes: 23
Jet airplanes: 1
Gliders airplanes: 1
  • FREQUENT GLIDER USE.
    
Aircraft operations: avg 89/week *
58% local general aviation
39% transient general aviation
4% military
* for 12-month period ending 31 December 2017

Additional Remarks

RY 13/31 HAS +15 FT HWY 120 FT WEST OF & PARALLEL TO CNTRLN FULL LENGTH, +4 FT FENCE 100 FT WEST OF & PARALLEL TO CNTRLN FULL LENGTH.
OCCASIONAL DEER & ELK ON RY 13/31.
PUBLIC USE TELEPHONE AND FREE WIFI AVBL.
BE ALERT; INTENSIVE USAF STUDENT TRAINING IN VICINITY OF COLORADO SPRINGS & PUEBLO COLORADO.
FOR CD CTC DENVER ARTCC AT 303-651-4257.

Instrument Procedures

There are no published instrument procedures at C08.

Some nearby airports with instrument procedures:

1V6 - Fremont County Airport (28 nm NE)
4V1 - Spanish Peaks Airfield (34 nm SE)
KALS - San Luis Valley Regional Airport/Bergman Field (42 nm SW)
KMVI - Monte Vista Municipal Airport (43 nm SW)
KPUB - Pueblo Memorial Airport (45 nm E)
 
Loc | Ops | Rwys | IFR | FBO | Links
Com | Nav | Svcs | Stats | Notes

AirBoss

 
Area around C08 (Silver West Airport)
 
Road maps at: MapQuest Bing Google
 
Aerial photo
WARNING: Photo may not be current or correct
Aerial photo of C08 (Silver West Airport)
Photo by David Newcomer
Photo taken 31-Mar-2012
from 13,500' looking northwest.

Do you have a better or more recent aerial photo of Silver West Airport that you would like to share? If so, please send us your photo.

 
Sectional chart

 
Airport distance calculator
Flying to Silver West Airport? Find the distance to fly.

From to C08

Sunrise and sunset
Times for 12-May-2021
 Local
(UTC-6)
 Zulu
(UTC)
Morning civil twilight05:2511:25
Sunrise05:5511:55
Sunset20:0102:01
Evening civil twilight20:3002:30

Current date and time
Zulu (UTC)  13-May-2021 04:25:41
Local (UTC-6)  12-May-2021 22:25:41
 
METAR
K1V6 
28nm NE 
130355Z AUTO 11003KT 10SM OVC041 12/05 A3031 RMK AO2
KVTP 
32nm S 
130355Z AUTO 10005KT M1/4SM +SN OVC001 01/01 A3042 RMK AO2
K04V 
38nm W 
130355Z AUTO 26003KT 10SM CLR 08/M10 A3031 RMK AO2
KALS 
42nm SW 
130352Z AUTO 13006KT 10SM CLR 08/02 A3029 RMK AO2 SLP210 T00830017
KPUB 
44nm E 
130353Z 05006KT 10SM BKN065 10/07 A3029 RMK AO2 SLP241 T01000067
KANK 
45nm NW 
130355Z AUTO 14013G17KT 10SM CLR 08/03 A3040 RMK AO1 T00770025
KFCS 
49nm NE 
130358Z AUTO 21005KT 10SM CLR 07/03 A3032 RMK AO2 SLP284 T00740031 $
KRCV 
50nm W 
130355Z AUTO 31009KT 10SM CLR 07/M13 A3030 RMK AO2 T00701129
TAF
KALS 
42nm SW 
130214Z 1302/1324 24010KT P6SM FEW120 FM130400 VRB04KT P6SM SKC FM131700 24007G18KT P6SM SKC FM132100 29015G25KT P6SM SCT130
KPUB 
44nm E 
121723Z 1218/1318 14006KT P6SM SCT007 OVC030 FM121900 11009KT P6SM SCT030 FM122000 12009KT P6SM SCT060 FM130300 08007KT P6SM SCT170 FM130600 VRB04KT P6SM SCT170
KFCS 
49nm NE 
130116Z 1301/1403 27010KT 9999 SCT030 QNH3026INS TEMPO 1301/1307 BKN010 BECMG 1307/1308 20010KT 8000 BR OVC009 QNH3029INS BECMG 1318/1319 30015G25KT 9999 NSW SCT008 QNH3013INS BECMG 1321/1322 20010KT 9999 FEW010 QNH3009INS TX20/1320Z TN03/1312Z
NOTAMs
Click for the latest NOTAMs
NOTAMs are issued by the DoD/FAA and will open in a separate window not controlled by AirNav.

 

 
 

FBO, Fuel Providers, and Aircraft Ground Support

  
 Business Name 
 
 Contact 
 
 Services / Description 
 
Fuel Prices
 
Comments
  
 SilverWest/Custer County Airport
122.90
719-783-2695
[web site]
[email]
Silver West Airport is located in the beautiful rocky mountains. At the base of both the Sangre de Cristo Mountain Range and the Wet Mountian Range.

More info about SilverWest/Custer County Airport
Phillips 66
100LL
SS $3.75 
 Updated 11-Feb-2021
 
   write
SS=Self service
Update Fuel Prices
 

Would you like to see your business listed on this page?

 If your business provides an interesting product or service to pilots, flight crews, aircraft, or users of the Silver West Airport, you should consider listing it here.  To start the listing process, click on the button below
 
Add a business
 

Other Pages about Silver West Airport

silverwestairport.custercountygov.com
 
Update a link
 
Copyright © AirNav, LLC. All rights reserved. Privacy Policy  Contact